Time;durP1;ratioP1;P1;durP2;ratioP2;P2;SDS_P1;SDS_P2;PMS_P1;PMS_P2;Temp;Humidity;BMP_temperature;BMP_pressure;BME280_temperature;BME280_humidity;BME280_pressure;Samples;Min_cycle;Max_cycle;Signal;HPM_P1;HPM_P2
2022/12/10 00:01:42;;;;;;;59.73;39.70;;;1.30;99.90;;;;;;5095032;28;20462;-78
2022/12/10 00:04:11;;;;;;;64.80;42.00;;;1.20;99.90;;;;;;5093490;28;20533;-78
2022/12/10 00:06:40;;;;;;;66.77;44.13;;;1.20;99.90;;;;;;5092399;28;20499;-78
2022/12/10 00:09:12;;;;;;;70.87;44.30;;;1.20;99.90;;;;;;5092689;28;20448;-78
2022/12/10 00:11:42;;;;;;;60.87;39.07;;;1.20;99.90;;;;;;5092506;28;20456;-78
2022/12/10 00:14:11;;;;;;;61.23;41.40;;;1.20;99.90;;;;;;5093578;28;20482;-78
2022/12/10 00:16:40;;;;;;;65.87;42.27;;;1.20;99.90;;;;;;5092323;28;21050;-78
2022/12/10 00:19:08;;;;;;;62.10;41.13;;;1.20;99.90;;;;;;5093242;28;20449;-78
2022/12/10 00:21:37;;;;;;;65.60;44.43;;;1.30;99.90;;;;;;5092576;28;20454;-78
2022/12/10 00:24:06;;;;;;;68.07;45.40;;;1.20;99.90;;;;;;5093453;28;20469;-78
2022/12/10 00:26:36;;;;;;;64.97;41.67;;;1.20;99.90;;;;;;5091862;28;20448;-78
2022/12/10 00:29:07;;;;;;;65.10;43.80;;;1.30;99.90;;;;;;5091999;28;20859;-78
2022/12/10 00:31:37;;;;;;;61.13;43.17;;;1.30;99.90;;;;;;5092056;28;20449;-78
2022/12/10 00:34:07;;;;;;;68.73;43.27;;;1.20;99.90;;;;;;5091962;28;20471;-78
2022/12/10 00:36:39;;;;;;;70.70;44.87;;;1.30;99.90;;;;;;5092009;28;20437;-78
2022/12/10 00:39:07;;;;;;;68.77;44.73;;;1.30;99.90;;;;;;5092020;28;20462;-78
2022/12/10 00:41:35;;;;;;;64.23;42.17;;;1.30;99.90;;;;;;5091797;28;20812;-78
2022/12/10 00:44:05;;;;;;;63.07;41.20;;;1.30;99.90;;;;;;5091852;28;20475;-78
2022/12/10 00:46:33;;;;;;;62.07;44.03;;;1.20;99.90;;;;;;5093400;28;20466;-78
2022/12/10 00:49:04;;;;;;;64.20;42.27;;;1.20;99.90;;;;;;5092113;28;20502;-78
2022/12/10 00:51:32;;;;;;;67.20;42.73;;;1.20;99.90;;;;;;5095999;28;20448;-78
2022/12/10 00:54:01;;;;;;;60.47;42.60;;;1.20;99.90;;;;;;5091963;28;20478;-78
2022/12/10 00:56:32;;;;;;;67.83;42.20;;;1.20;99.90;;;;;;5093459;28;20518;-78
2022/12/10 00:59:00;;;;;;;69.13;43.07;;;1.20;99.90;;;;;;5093400;28;20453;-78
2022/12/10 01:01:32;;;;;;;64.43;41.83;;;1.20;99.90;;;;;;5092342;28;20444;-78
2022/12/10 01:04:04;;;;;;;62.87;42.40;;;1.20;99.90;;;;;;5095323;28;20467;-78
2022/12/10 01:06:35;;;;;;;57.37;40.80;;;1.20;99.90;;;;;;5095459;28;20548;-78
2022/12/10 01:09:06;;;;;;;67.97;45.30;;;1.20;99.90;;;;;;5095702;28;20443;-78
2022/12/10 01:11:37;;;;;;;72.20;46.40;;;1.20;99.90;;;;;;5097115;28;20417;-78
2022/12/10 01:14:06;;;;;;;64.80;43.50;;;1.20;99.90;;;;;;5095651;28;20470;-78
2022/12/10 01:16:36;;;;;;;64.13;41.70;;;1.20;99.90;;;;;;5095342;28;20631;-78
2022/12/10 01:19:05;;;;;;;71.10;45.07;;;1.20;99.90;;;;;;5095208;28;20429;-78
2022/12/10 01:21:35;;;;;;;68.53;44.23;;;1.20;99.90;;;;;;5095156;28;20451;-78
2022/12/10 01:24:05;;;;;;;66.80;42.17;;;1.20;99.90;;;;;;5094924;28;20550;-78
2022/12/10 01:26:34;;;;;;;66.03;42.47;;;1.20;99.90;;;;;;5096021;28;20465;-78
2022/12/10 01:29:03;;;;;;;63.50;42.20;;;1.20;99.90;;;;;;5094955;28;20446;-78
2022/12/10 01:31:34;;;;;;;63.57;42.60;;;1.20;99.90;;;;;;5095025;28;20452;-77
2022/12/10 01:34:07;;;;;;;63.40;44.57;;;1.20;99.90;;;;;;5094505;28;20470;-78
2022/12/10 01:36:36;;;;;;;62.10;42.30;;;1.30;99.90;;;;;;5097901;28;20414;-78
2022/12/10 01:39:08;;;;;;;62.93;43.97;;;1.20;99.90;;;;;;5096019;28;20449;-78
2022/12/10 01:41:40;;;;;;;62.90;42.10;;;1.20;99.90;;;;;;5107140;28;20451;-78
2022/12/10 01:44:43;;;;;;;59.40;42.13;;;1.20;99.90;;;;;;5115270;28;21077;-78
2022/12/10 01:47:11;;;;;;;70.30;43.50;;;1.30;99.90;;;;;;5116303;28;20454;-78
2022/12/10 01:49:41;;;;;;;64.93;43.17;;;1.20;99.90;;;;;;5115063;28;20450;-78
2022/12/10 01:52:13;;;;;;;69.80;44.53;;;1.20;99.90;;;;;;5116644;28;20420;-78
2022/12/10 01:54:43;;;;;;;62.13;41.53;;;1.20;99.90;;;;;;5114781;28;20555;-78
2022/12/10 01:57:15;;;;;;;62.10;41.83;;;1.30;99.90;;;;;;5114898;28;20489;-78
2022/12/10 01:59:44;;;;;;;64.30;42.20;;;1.30;99.90;;;;;;5114662;28;20971;-78
2022/12/10 02:02:18;;;;;;;58.63;41.13;;;1.30;99.90;;;;;;5114424;28;20455;-78
2022/12/10 02:05:02;;;;;;;56.77;39.50;;;1.30;99.90;;;;;;5114635;28;20487;-78
2022/12/10 02:07:46;;;;;;;59.20;43.20;;;1.20;99.90;;;;;;5115821;28;20788;-78
2022/12/10 02:10:24;;;;;;;61.33;41.30;;;1.30;99.90;;;;;;5114417;28;20432;-78
2022/12/10 02:12:58;;;;;;;62.63;44.23;;;1.30;99.90;;;;;;5114548;28;20515;-78
2022/12/10 02:15:31;;;;;;;65.33;41.60;;;1.30;99.90;;;;;;5115096;28;20455;-78
2022/12/10 02:18:05;;;;;;;60.30;42.33;;;1.30;99.90;;;;;;5114197;28;20436;-78
2022/12/10 02:20:38;;;;;;;56.40;39.07;;;1.30;99.90;;;;;;5114319;28;20851;-78
2022/12/10 02:23:12;;;;;;;59.20;40.93;;;1.30;99.90;;;;;;5114161;28;20440;-78
2022/12/10 02:25:45;;;;;;;58.00;39.00;;;1.30;99.90;;;;;;5114021;28;20840;-78
2022/12/10 02:28:23;;;;;;;66.90;41.53;;;1.30;99.90;;;;;;5113985;28;20533;-78
2022/12/10 02:30:54;;;;;;;62.33;42.90;;;1.30;99.90;;;;;;5109465;28;20472;-78
2022/12/10 02:33:25;;;;;;;61.17;42.83;;;1.30;99.90;;;;;;5093771;28;20464;-78
2022/12/10 02:35:54;;;;;;;64.20;41.93;;;1.30;99.90;;;;;;5093607;28;20906;-78
2022/12/10 02:38:27;;;;;;;59.20;40.70;;;1.30;99.90;;;;;;5093550;28;20446;-78
2022/12/10 02:41:03;;;;;;;59.23;39.97;;;1.30;99.90;;;;;;5093751;28;20456;-78
2022/12/10 02:43:34;;;;;;;61.10;41.90;;;1.30;99.90;;;;;;5093465;28;20444;-78
2022/12/10 02:46:06;;;;;;;58.00;40.00;;;1.30;99.90;;;;;;5093420;28;20493;-78
2022/12/10 02:48:36;;;;;;;55.63;38.20;;;1.30;99.90;;;;;;5093273;28;20468;-78
2022/12/10 02:51:04;;;;;;;57.17;39.60;;;1.30;99.90;;;;;;5093156;28;20907;-78
2022/12/10 02:53:32;;;;;;;55.60;39.90;;;1.30;99.90;;;;;;5093417;28;20449;-78
2022/12/10 02:56:14;;;;;;;58.50;40.70;;;1.30;99.90;;;;;;5093090;28;20460;-78
2022/12/10 02:58:57;;;;;;;60.27;41.30;;;1.30;99.90;;;;;;5093139;28;21024;-78
2022/12/10 03:01:41;;;;;;;58.00;40.67;;;1.30;99.90;;;;;;5093153;28;20956;-78
2022/12/10 03:04:15;;;;;;;55.53;40.80;;;1.40;99.90;;;;;;5094308;28;20799;-78
2022/12/10 03:06:48;;;;;;;58.00;41.53;;;1.30;99.90;;;;;;5092935;28;20491;-78
2022/12/10 03:09:22;;;;;;;53.13;39.20;;;1.30;99.90;;;;;;5093943;28;20437;-78
2022/12/10 03:11:57;;;;;;;51.60;39.00;;;1.30;99.90;;;;;;5095734;28;20423;-78
2022/12/10 03:14:30;;;;;;;54.83;38.47;;;1.30;99.90;;;;;;5096918;28;20463;-78
2022/12/10 03:17:01;;;;;;;52.17;39.50;;;1.30;99.90;;;;;;5095399;28;20441;-78
2022/12/10 03:19:34;;;;;;;52.27;39.40;;;1.30;99.90;;;;;;5093751;28;20444;-77
2022/12/10 03:22:03;;;;;;;50.20;37.60;;;1.30;99.90;;;;;;5106585;28;20466;-78
2022/12/10 03:24:33;;;;;;;49.57;38.17;;;1.30;99.90;;;;;;5114638;28;20471;-78
2022/12/10 03:27:04;;;;;;;52.83;40.07;;;1.30;99.90;;;;;;5113839;28;20468;-78
2022/12/10 03:29:36;;;;;;;49.77;38.43;;;1.30;99.90;;;;;;5113667;28;20488;-78
2022/12/10 03:32:07;;;;;;;50.33;36.93;;;1.30;99.90;;;;;;5114697;28;20463;-78
2022/12/10 03:34:36;;;;;;;51.20;38.70;;;1.30;99.90;;;;;;5113261;28;20471;-77
2022/12/10 03:37:05;;;;;;;53.57;40.20;;;1.30;99.90;;;;;;5113334;28;20820;-78
2022/12/10 03:39:34;;;;;;;52.30;39.30;;;1.30;99.90;;;;;;5113181;28;20445;-78
2022/12/10 03:42:02;;;;;;;55.20;40.60;;;1.30;99.90;;;;;;5113039;28;20451;-78
2022/12/10 03:44:32;;;;;;;55.03;40.10;;;1.30;99.90;;;;;;5114148;28;20448;-78
2022/12/10 03:47:01;;;;;;;54.30;40.60;;;1.40;99.90;;;;;;5112705;28;20473;-78
2022/12/10 03:49:31;;;;;;;52.17;38.37;;;1.30;99.90;;;;;;5112788;28;20448;-78
2022/12/10 03:51:59;;;;;;;50.90;39.50;;;1.30;99.90;;;;;;5114195;28;20536;-78
2022/12/10 03:54:28;;;;;;;51.10;37.83;;;1.30;99.90;;;;;;5113020;28;20516;-78
2022/12/10 03:56:56;;;;;;;50.10;36.57;;;1.40;99.90;;;;;;5113221;28;20539;-78
2022/12/10 03:59:24;;;;;;;46.23;35.47;;;1.40;99.90;;;;;;5114206;28;20444;-78
2022/12/10 04:01:52;;;;;;;50.77;38.00;;;1.40;99.90;;;;;;5114166;28;20445;-78
2022/12/10 04:04:20;;;;;;;51.90;36.97;;;1.40;99.90;;;;;;5113677;28;20500;-78
2022/12/10 04:06:50;;;;;;;49.87;37.57;;;1.40;99.90;;;;;;5113745;28;20463;-78
2022/12/10 04:09:18;;;;;;;48.33;35.07;;;1.40;99.90;;;;;;5112482;28;20512;-78
2022/12/10 04:11:46;;;;;;;51.17;38.27;;;1.40;99.90;;;;;;5100979;28;20460;-78
2022/12/10 04:17:00;;;;;;;48.87;38.37;;;1.40;99.90;;;;;;5093229;28;20440;-78
2022/12/10 04:19:29;;;;;;;47.40;36.50;;;1.40;99.90;;;;;;5092101;28;20973;-78
2022/12/10 04:27:31;;;;;;;45.83;36.60;;;1.30;99.90;;;;;;5092061;28;20461;-78
2022/12/10 04:30:00;;;;;;;46.37;36.17;;;1.30;99.90;;;;;;5092013;28;20468;-78
2022/12/10 04:32:30;;;;;;;44.97;36.47;;;1.30;99.90;;;;;;5092048;28;20558;-78
2022/12/10 04:34:59;;;;;;;48.73;36.80;;;1.30;99.90;;;;;;5093529;28;20467;-78
2022/12/10 04:37:29;;;;;;;48.23;38.17;;;1.40;99.90;;;;;;5094486;28;20521;-78
2022/12/10 04:39:57;;;;;;;44.70;36.70;;;1.30;99.90;;;;;;5096252;28;20455;-78
2022/12/10 04:42:25;;;;;;;45.73;35.83;;;1.30;99.90;;;;;;5097234;28;20834;-78
2022/12/10 04:44:53;;;;;;;48.80;38.10;;;1.40;99.90;;;;;;5095723;28;20464;-78
2022/12/10 04:47:21;;;;;;;44.30;37.00;;;1.40;99.90;;;;;;5095479;28;20466;-78
2022/12/10 04:49:49;;;;;;;43.60;35.03;;;1.30;99.90;;;;;;5095805;28;20984;-78
2022/12/10 04:52:18;;;;;;;41.23;35.27;;;1.30;99.90;;;;;;5097225;28;20445;-77
2022/12/10 04:54:48;;;;;;;43.63;36.63;;;1.30;99.90;;;;;;5095508;28;21006;-78
2022/12/10 04:57:16;;;;;;;42.30;35.47;;;1.40;99.90;;;;;;5096996;28;20929;-78
2022/12/10 04:59:44;;;;;;;46.80;39.07;;;1.30;99.90;;;;;;5096739;28;20467;-78
2022/12/10 05:02:12;;;;;;;43.90;35.97;;;1.30;99.90;;;;;;5098374;28;21038;-78
2022/12/10 05:04:40;;;;;;;46.50;36.90;;;1.30;99.90;;;;;;5095213;28;20866;-78
2022/12/10 05:07:08;;;;;;;45.33;35.47;;;1.30;99.90;;;;;;5095206;28;20467;-78
2022/12/10 05:09:36;;;;;;;41.20;35.27;;;1.30;99.90;;;;;;5096494;28;20432;-78
2022/12/10 05:12:06;;;;;;;46.10;37.10;;;1.30;99.90;;;;;;5096702;28;20487;-78
2022/12/10 05:14:34;;;;;;;44.27;36.40;;;1.30;99.90;;;;;;5096555;28;20476;-78
2022/12/10 05:17:03;;;;;;;42.30;34.83;;;1.30;99.90;;;;;;5095141;28;20445;-78
2022/12/10 05:19:31;;;;;;;44.73;36.13;;;1.30;99.90;;;;;;5096505;28;20441;-78
2022/12/10 05:24:47;;;;;;;43.13;36.53;;;1.30;99.90;;;;;;5095036;28;20806;-78
2022/12/10 05:27:16;;;;;;;43.03;35.47;;;1.30;99.90;;;;;;5095118;28;20866;-78
2022/12/10 05:29:44;;;;;;;41.03;34.03;;;1.30;99.90;;;;;;5096370;28;20797;-78
2022/12/10 05:32:12;;;;;;;42.47;35.73;;;1.30;99.90;;;;;;5094883;28;20981;-78
2022/12/10 05:34:40;;;;;;;44.67;35.90;;;1.30;99.90;;;;;;5094649;28;20495;-78
2022/12/10 05:37:09;;;;;;;38.90;34.63;;;1.30;99.90;;;;;;5097159;28;20430;-78
2022/12/10 05:39:37;;;;;;;45.33;37.47;;;1.30;99.90;;;;;;5098177;28;20444;-78
2022/12/10 05:42:05;;;;;;;42.97;35.50;;;1.30;99.90;;;;;;5096642;28;20519;-78
2022/12/10 05:44:34;;;;;;;43.63;36.50;;;1.30;99.90;;;;;;5094930;28;20474;-78
2022/12/10 05:47:03;;;;;;;42.10;36.00;;;1.30;99.90;;;;;;5096053;28;20519;-78
2022/12/10 05:49:31;;;;;;;41.67;35.57;;;1.30;99.90;;;;;;5094226;28;20444;-78
2022/12/10 05:51:59;;;;;;;39.60;35.10;;;1.20;99.90;;;;;;5097215;28;20826;-78
2022/12/10 05:54:27;;;;;;;43.93;37.30;;;1.30;99.90;;;;;;5095759;28;20993;-78
2022/12/10 05:56:55;;;;;;;39.10;33.30;;;1.30;99.90;;;;;;5094638;28;20903;-78
2022/12/10 05:59:23;;;;;;;43.03;35.67;;;1.30;99.90;;;;;;5094520;28;20452;-79
2022/12/10 06:01:52;;;;;;;41.93;36.97;;;1.30;99.90;;;;;;5094431;28;20455;-78
2022/12/10 06:04:21;;;;;;;41.77;34.53;;;1.20;99.90;;;;;;5094321;28;20477;-78
2022/12/10 06:06:49;;;;;;;44.50;37.57;;;1.20;99.90;;;;;;5094289;28;20456;-79
2022/12/10 06:09:17;;;;;;;45.10;37.57;;;1.20;99.90;;;;;;5093784;28;20478;-79
2022/12/10 06:11:46;;;;;;;42.40;36.43;;;1.20;99.90;;;;;;5093981;28;20436;-78
2022/12/10 06:14:15;;;;;;;42.70;36.53;;;1.20;99.90;;;;;;5093982;28;20513;-78
2022/12/10 06:16:43;;;;;;;44.53;36.73;;;1.20;99.90;;;;;;5095430;28;20833;-78
2022/12/10 06:19:12;;;;;;;49.70;40.33;;;1.20;99.90;;;;;;5095337;28;20451;-78
2022/12/10 06:21:40;;;;;;;40.80;36.37;;;1.20;99.90;;;;;;5093641;28;20453;-78
2022/12/10 06:24:09;;;;;;;41.83;35.80;;;1.20;99.90;;;;;;5093589;28;20465;-78
2022/12/10 06:26:37;;;;;;;42.47;35.87;;;1.20;99.90;;;;;;5093623;28;20453;-78
2022/12/10 06:29:05;;;;;;;45.50;36.73;;;1.20;99.90;;;;;;5093645;28;20563;-78
2022/12/10 06:31:34;;;;;;;45.47;36.80;;;1.20;99.90;;;;;;5093563;28;20452;-78
2022/12/10 06:34:02;;;;;;;39.50;33.87;;;1.20;99.90;;;;;;5093488;28;20469;-78
2022/12/10 06:36:32;;;;;;;40.50;35.37;;;1.20;99.90;;;;;;5093531;28;20452;-78
2022/12/10 06:39:00;;;;;;;38.93;34.53;;;1.20;99.90;;;;;;5093330;28;20460;-78
2022/12/10 06:41:28;;;;;;;42.50;37.30;;;1.20;99.90;;;;;;5096941;28;20810;-78
2022/12/10 06:43:58;;;;;;;43.47;37.30;;;1.10;99.90;;;;;;5093117;28;20518;-78
2022/12/10 06:46:28;;;;;;;41.07;36.67;;;1.10;99.90;;;;;;5093309;28;20451;-78
2022/12/10 06:48:56;;;;;;;42.63;37.50;;;1.20;99.90;;;;;;5093257;28;20519;-78
2022/12/10 06:51:25;;;;;;;40.10;34.77;;;1.20;99.90;;;;;;5094656;28;20440;-78
2022/12/10 06:53:55;;;;;;;40.57;35.30;;;1.20;99.90;;;;;;5093381;28;20462;-78
2022/12/10 06:56:24;;;;;;;40.00;35.43;;;1.10;99.90;;;;;;5093209;28;20445;-78
2022/12/10 06:58:53;;;;;;;43.57;36.53;;;1.10;99.90;;;;;;5094393;28;20988;-79
2022/12/10 07:01:25;;;;;;;40.43;35.57;;;1.20;99.90;;;;;;5098186;28;20857;-79
2022/12/10 07:03:56;;;;;;;39.57;35.30;;;1.10;99.90;;;;;;5095872;28;21016;-79
2022/12/10 07:06:25;;;;;;;40.17;34.90;;;1.20;99.90;;;;;;5095973;28;20483;-79
2022/12/10 07:08:55;;;;;;;42.47;36.60;;;1.20;99.90;;;;;;5094285;28;20560;-77
2022/12/10 07:11:25;;;;;;;41.97;36.43;;;1.20;99.90;;;;;;5093065;28;20463;-77
2022/12/10 07:13:53;;;;;;;42.10;37.47;;;1.10;99.90;;;;;;5092811;28;21016;-77
2022/12/10 07:16:23;;;;;;;41.60;35.83;;;1.20;99.90;;;;;;5092949;28;20449;-77
2022/12/10 07:18:52;;;;;;;41.43;35.40;;;1.10;99.90;;;;;;5092909;28;20448;-77
2022/12/10 07:21:22;;;;;;;40.07;35.53;;;1.20;99.90;;;;;;5094011;28;20451;-77
2022/12/10 07:23:50;;;;;;;42.73;37.10;;;1.20;99.90;;;;;;5093844;28;20953;-77
2022/12/10 07:26:20;;;;;;;39.83;34.93;;;1.10;99.90;;;;;;5092590;28;20437;-77
2022/12/10 07:28:48;;;;;;;41.10;36.70;;;1.20;99.90;;;;;;5092444;28;20476;-77
2022/12/10 07:31:22;;;;;;;40.87;35.63;;;1.20;99.90;;;;;;5102688;28;20895;-77
2022/12/10 07:33:54;;;;;;;41.80;36.30;;;1.20;99.90;;;;;;5114345;28;20516;-76
2022/12/10 07:36:23;;;;;;;41.93;35.13;;;1.20;99.90;;;;;;5114442;28;20761;-76
2022/12/10 07:38:52;;;;;;;38.87;34.67;;;1.20;99.90;;;;;;5112976;28;20447;-76
2022/12/10 07:41:22;;;;;;;39.33;34.90;;;1.20;99.90;;;;;;5112978;28;20447;-76
2022/12/10 07:43:51;;;;;;;42.77;38.13;;;1.20;99.90;;;;;;5114337;28;20463;-76
2022/12/10 07:46:21;;;;;;;38.60;34.20;;;1.20;99.90;;;;;;5114480;28;20485;-76
2022/12/10 07:48:50;;;;;;;42.83;38.17;;;1.20;99.90;;;;;;5114637;28;20454;-76
2022/12/10 07:51:22;;;;;;;44.80;38.80;;;1.10;99.90;;;;;;5112832;28;20470;-76
2022/12/10 07:53:54;;;;;;;41.70;37.37;;;1.20;99.90;;;;;;5113158;28;21008;-76
2022/12/10 07:56:24;;;;;;;40.60;34.40;;;1.20;99.90;;;;;;5113108;28;20476;-77
2022/12/10 07:58:53;;;;;;;40.03;35.93;;;1.20;99.90;;;;;;5113033;28;20812;-77
2022/12/10 08:01:23;;;;;;;36.70;32.87;;;1.20;99.90;;;;;;5115095;28;20422;-76
2022/12/10 08:03:53;;;;;;;43.10;36.00;;;1.20;99.90;;;;;;5114284;28;20458;-77
2022/12/10 08:06:22;;;;;;;39.33;35.17;;;1.20;99.90;;;;;;5112916;28;20448;-77
2022/12/10 08:08:50;;;;;;;39.57;35.47;;;1.20;99.90;;;;;;5114998;28;20469;-77
2022/12/10 08:11:20;;;;;;;42.53;37.83;;;1.20;99.90;;;;;;5112712;28;20436;-77
2022/12/10 08:13:50;;;;;;;43.37;37.47;;;1.20;99.90;;;;;;5116697;28;20541;-77
2022/12/10 08:16:26;;;;;;;42.27;36.83;;;1.20;99.90;;;;;;5116979;28;20440;-77
2022/12/10 08:18:55;;;;;;;40.77;36.37;;;1.20;99.90;;;;;;5117304;28;20439;-77
2022/12/10 08:21:25;;;;;;;41.27;36.00;;;1.20;99.90;;;;;;5108637;28;20803;-76
2022/12/10 08:23:54;;;;;;;40.90;36.17;;;1.20;99.90;;;;;;5096851;28;20476;-77
2022/12/10 08:26:24;;;;;;;41.80;37.20;;;1.30;99.90;;;;;;5096467;28;20437;-77
2022/12/10 08:28:55;;;;;;;38.83;34.77;;;1.20;99.90;;;;;;5097905;28;20835;-77
2022/12/10 08:31:25;;;;;;;31.37;28.00;;;1.30;99.90;;;;;;5096382;28;20445;-77
2022/12/10 08:33:54;;;;;;;41.60;37.23;;;1.30;99.90;;;;;;5096419;28;20901;-76
2022/12/10 08:36:23;;;;;;;42.57;37.90;;;1.30;99.90;;;;;;5097601;28;20436;-77
2022/12/10 08:38:51;;;;;;;39.87;35.47;;;1.30;99.90;;;;;;5096238;28;20453;-77
2022/12/10 08:41:21;;;;;;;41.53;37.13;;;1.30;99.90;;;;;;5097353;28;20445;-77
2022/12/10 08:43:53;;;;;;;41.87;37.30;;;1.30;99.90;;;;;;5095973;28;20518;-77
2022/12/10 08:46:22;;;;;;;40.30;36.07;;;1.30;99.90;;;;;;5096033;28;20444;-77
2022/12/10 08:48:50;;;;;;;39.57;35.10;;;1.40;99.90;;;;;;5097250;28;20533;-77
2022/12/10 08:51:20;;;;;;;40.77;36.43;;;1.30;99.90;;;;;;5097466;28;20444;-77
2022/12/10 08:53:48;;;;;;;40.97;35.53;;;1.40;99.90;;;;;;5096061;28;20464;-77
2022/12/10 08:56:16;;;;;;;41.00;36.50;;;1.40;99.90;;;;;;5095687;28;20509;-77
2022/12/10 08:58:44;;;;;;;41.67;37.20;;;1.40;99.90;;;;;;5096805;28;20439;-77
2022/12/10 09:01:16;;;;;;;39.90;34.30;;;1.40;99.90;;;;;;5096814;28;20452;-77
2022/12/10 09:03:44;;;;;;;41.97;37.27;;;1.40;99.90;;;;;;5097078;28;20826;-77
2022/12/10 09:06:14;;;;;;;40.57;36.27;;;1.40;99.90;;;;;;5095478;28;20529;-77
2022/12/10 09:08:42;;;;;;;40.43;36.03;;;1.40;99.90;;;;;;5096073;28;20455;-77
2022/12/10 09:11:13;;;;;;;40.43;36.20;;;1.50;99.90;;;;;;5099132;28;20936;-77
2022/12/10 09:13:41;;;;;;;39.67;35.47;;;1.50;99.90;;;;;;5096971;28;20416;-77
2022/12/10 09:16:10;;;;;;;39.67;35.37;;;1.50;99.90;;;;;;5095381;28;20447;-77
2022/12/10 09:18:41;;;;;;;40.70;34.53;;;1.50;99.90;;;;;;5096755;28;20816;-77
2022/12/10 09:21:12;;;;;;;41.90;35.17;;;1.50;99.90;;;;;;5095172;28;20448;-77
2022/12/10 09:23:41;;;;;;;41.70;36.37;;;1.50;99.90;;;;;;5094500;28;20845;-77
2022/12/10 09:26:11;;;;;;;37.13;33.20;;;1.60;99.90;;;;;;5096316;28;20839;-77
2022/12/10 09:28:39;;;;;;;40.53;36.20;;;1.60;99.90;;;;;;5095284;28;20456;-77
2022/12/10 09:31:08;;;;;;;42.90;37.37;;;1.60;99.90;;;;;;5094919;28;21004;-77
2022/12/10 09:33:49;;;;;;;39.63;35.43;;;1.60;99.90;;;;;;5094916;28;20465;-77
2022/12/10 09:36:18;;;;;;;40.97;35.63;;;1.60;99.90;;;;;;5095289;28;20874;-77
2022/12/10 09:38:48;;;;;;;40.07;35.77;;;1.70;99.90;;;;;;5094736;28;20949;-77
2022/12/10 09:41:39;;;;;;;40.93;36.57;;;1.70;99.90;;;;;;5096341;28;20531;-77
2022/12/10 09:44:13;;;;;;;42.37;37.83;;;1.70;99.90;;;;;;5099205;28;20507;-77
2022/12/10 09:46:49;;;;;;;38.77;34.57;;;1.80;99.90;;;;;;5098366;28;20422;-77
2022/12/10 09:49:29;;;;;;;41.23;36.83;;;1.80;99.90;;;;;;5096583;28;20455;-77
2022/12/10 09:52:01;;;;;;;40.27;35.87;;;1.80;99.90;;;;;;5094840;28;20537;-77
2022/12/10 09:54:33;;;;;;;41.10;36.80;;;1.80;99.90;;;;;;5095168;28;20476;-77
2022/12/10 09:57:06;;;;;;;39.20;34.80;;;1.90;99.90;;;;;;5094438;28;20445;-77
2022/12/10 09:59:43;;;;;;;38.00;33.60;;;1.90;99.90;;;;;;5095960;28;20458;-77
2022/12/10 10:02:23;;;;;;;37.53;33.37;;;1.90;99.90;;;;;;5097952;28;20976;-77
2022/12/10 10:04:55;;;;;;;34.47;30.83;;;1.90;99.90;;;;;;5094366;28;20529;-77
2022/12/10 10:07:26;;;;;;;34.60;30.97;;;2.00;99.90;;;;;;5095939;28;20796;-77
2022/12/10 10:09:59;;;;;;;35.33;31.73;;;2.00;99.90;;;;;;5094141;28;20510;-77
2022/12/10 10:12:29;;;;;;;34.73;31.13;;;2.00;99.90;;;;;;5094164;28;20441;-77
2022/12/10 10:14:57;;;;;;;37.90;34.00;;;2.00;99.90;;;;;;5093945;28;20878;-77
2022/12/10 10:17:32;;;;;;;35.17;31.57;;;2.00;99.90;;;;;;5093930;28;20459;-77
2022/12/10 10:20:02;;;;;;;35.40;31.17;;;2.00;99.90;;;;;;5094028;28;20494;-77
2022/12/10 10:22:30;;;;;;;36.20;32.37;;;2.00;99.90;;;;;;5095083;28;20432;-77
2022/12/10 10:25:02;;;;;;;33.10;29.60;;;2.10;99.90;;;;;;5094933;28;20885;-77
2022/12/10 10:27:33;;;;;;;33.80;30.37;;;2.10;99.90;;;;;;5095227;28;20414;-77
2022/12/10 10:30:04;;;;;;;40.53;36.33;;;2.10;99.90;;;;;;5093533;28;20471;-77
2022/12/10 10:32:49;;;;;;;37.90;32.83;;;2.10;99.90;;;;;;5093768;28;20497;-77
2022/12/10 10:35:28;;;;;;;33.23;29.70;;;2.20;99.90;;;;;;5093004;28;20475;-77
2022/12/10 10:38:02;;;;;;;29.83;26.77;;;2.20;99.90;;;;;;5093951;28;20443;-77
2022/12/10 10:40:34;;;;;;;26.63;23.90;;;2.20;99.90;;;;;;5094085;28;20437;-77
2022/12/10 10:43:02;;;;;;;24.40;21.83;;;2.20;99.90;;;;;;5093477;28;20483;-77
2022/12/10 10:45:40;;;;;;;25.07;22.57;;;2.20;99.90;;;;;;5093380;28;20474;-77
2022/12/10 10:48:13;;;;;;;28.47;25.57;;;2.20;99.90;;;;;;5093977;28;21024;-77
2022/12/10 10:50:45;;;;;;;30.67;27.37;;;2.20;99.90;;;;;;5096344;28;20483;-77
2022/12/10 10:53:29;;;;;;;29.70;26.70;;;2.20;99.90;;;;;;5093368;28;20511;-77
2022/12/10 10:56:05;;;;;;;29.70;26.60;;;2.30;99.90;;;;;;5093365;28;20444;-77
2022/12/10 10:58:33;;;;;;;29.80;26.70;;;2.30;99.90;;;;;;5094392;28;20459;-77
2022/12/10 11:01:04;;;;;;;30.57;27.37;;;2.30;99.90;;;;;;5093022;28;20480;-77
2022/12/10 11:03:35;;;;;;;30.77;27.57;;;2.30;99.90;;;;;;5092892;28;20535;-77
2022/12/10 11:06:09;;;;;;;30.67;27.57;;;2.30;99.90;;;;;;5092918;28;20491;-77
2022/12/10 11:08:39;;;;;;;28.87;26.13;;;2.30;99.90;;;;;;5094564;28;20474;-77
2022/12/10 11:11:13;;;;;;;26.30;23.60;;;2.40;99.90;;;;;;5092943;28;20804;-77
2022/12/10 11:13:41;;;;;;;26.40;23.53;;;2.40;99.90;;;;;;5094579;28;20426;-77
2022/12/10 11:16:17;;;;;;;29.20;26.07;;;2.40;99.90;;;;;;5094510;28;20435;-77
2022/12/10 11:18:54;;;;;;;28.40;25.57;;;2.40;99.90;;;;;;5094322;28;20898;-76
2022/12/10 11:21:24;;;;;;;24.70;21.80;;;2.50;99.90;;;;;;5094233;28;20430;-77
2022/12/10 11:23:56;;;;;;;24.67;21.97;;;2.50;99.90;;;;;;5093874;28;20464;-77
2022/12/10 11:26:47;;;;;;;23.80;21.13;;;2.50;99.90;;;;;;5094744;28;20504;-77
2022/12/10 11:29:29;;;;;;;33.03;27.07;;;2.50;99.90;;;;;;5092780;28;20469;-76
2022/12/10 11:32:08;;;;;;;24.40;21.80;;;2.50;99.90;;;;;;5092831;28;20472;-77
2022/12/10 11:34:52;;;;;;;25.80;23.10;;;2.50;99.90;;;;;;5095913;28;20454;-77
2022/12/10 11:37:30;;;;;;;27.97;24.50;;;2.50;99.90;;;;;;5093873;28;20481;-77
2022/12/10 11:40:33;;;;;;;29.80;26.70;;;2.50;99.90;;;;;;5093406;28;20442;-77
2022/12/10 11:43:21;;;;;;;29.37;26.20;;;2.50;99.90;;;;;;5095173;28;20459;-77
2022/12/10 11:46:08;;;;;;;27.40;24.60;;;2.40;99.90;;;;;;5109789;28;20445;-76
2022/12/10 11:49:02;;;;;;;30.43;26.83;;;2.40;99.90;;;;;;5093840;28;20442;-77
2022/12/10 11:51:38;;;;;;;31.30;27.97;;;2.40;99.90;;;;;;5094778;28;20476;-77
2022/12/10 11:54:33;;;;;;;31.07;27.20;;;2.50;99.90;;;;;;5092828;28;20477;-77
2022/12/10 11:57:09;;;;;;;32.53;29.03;;;2.40;99.90;;;;;;5094545;28;20441;-77
2022/12/10 11:59:44;;;;;;;28.60;24.20;;;2.50;99.90;;;;;;5094678;28;20458;-77
2022/12/10 12:03:01;;;;;;;27.40;22.77;;;2.50;99.90;;;;;;5094396;28;20460;-77
2022/12/10 12:05:44;;;;;;;27.50;24.50;;;2.50;99.90;;;;;;5094605;28;21011;-77
2022/12/10 12:08:18;;;;;;;26.53;23.17;;;2.50;99.90;;;;;;5094122;28;20450;-77
2022/12/10 12:11:10;;;;;;;29.50;26.30;;;2.50;99.90;;;;;;5093662;28;20455;-76
2022/12/10 12:13:44;;;;;;;28.27;24.60;;;2.40;99.90;;;;;;5092135;28;20946;-77
2022/12/10 12:16:17;;;;;;;31.17;27.50;;;2.40;99.90;;;;;;5092242;28;20435;-77
2022/12/10 12:18:54;;;;;;;27.57;24.73;;;2.40;99.90;;;;;;5092001;28;20504;-77
2022/12/10 12:21:22;;;;;;;28.70;24.63;;;2.40;99.90;;;;;;5092020;28;20425;-77
2022/12/10 12:23:54;;;;;;;30.00;26.67;;;2.40;99.90;;;;;;5091843;28;20477;-77
2022/12/10 12:26:35;;;;;;;30.77;26.70;;;2.40;99.90;;;;;;5091944;28;20436;-77
2022/12/10 12:29:15;;;;;;;31.83;28.40;;;2.40;99.90;;;;;;5092017;28;20444;-77
2022/12/10 12:31:49;;;;;;;32.33;27.87;;;2.40;99.90;;;;;;5097990;28;20838;-77
2022/12/10 12:34:22;;;;;;;25.23;22.50;;;2.40;99.90;;;;;;5093374;28;20452;-76
2022/12/10 12:36:50;;;;;;;24.10;21.60;;;2.40;99.90;;;;;;5091841;28;20451;-77
2022/12/10 12:39:24;;;;;;;28.57;24.50;;;2.40;99.90;;;;;;5091921;28;20454;-77
2022/12/10 12:42:01;;;;;;;27.57;24.20;;;2.40;99.90;;;;;;5092377;28;20439;-76
2022/12/10 12:44:37;;;;;;;28.40;24.97;;;2.40;99.90;;;;;;5094203;28;20461;-76
2022/12/10 12:47:17;;;;;;;19.10;17.10;;;2.40;99.90;;;;;;5092715;28;20446;-76
2022/12/10 12:49:46;;;;;;;21.63;17.20;;;2.40;99.90;;;;;;5094294;28;20481;-76
2022/12/10 12:52:27;;;;;;;21.97;18.70;;;2.40;99.90;;;;;;5092634;28;20469;-76
2022/12/10 12:55:00;;;;;;;22.20;19.90;;;2.30;99.90;;;;;;5093743;28;20542;-76
2022/12/10 12:57:37;;;;;;;23.07;19.37;;;2.40;99.90;;;;;;5094451;28;20420;-76
2022/12/10 13:00:11;;;;;;;24.23;20.20;;;2.40;99.90;;;;;;5096838;28;20455;-76
2022/12/10 13:02:56;;;;;;;25.47;21.53;;;2.40;99.90;;;;;;5095624;28;20483;-76
2022/12/10 13:05:29;;;;;;;25.17;21.70;;;2.40;99.90;;;;;;5095490;28;20502;-76
2022/12/10 13:08:29;;;;;;;28.40;25.37;;;2.40;99.90;;;;;;5095913;28;20953;-76
2022/12/10 13:11:15;;;;;;;26.03;22.97;;;2.30;99.90;;;;;;5095065;28;20466;-76